Time;durP1;ratioP1;P1;durP2;ratioP2;P2;SDS_P1;SDS_P2;PMS_P1;PMS_P2;Temp;Humidity;BMP_temperature;BMP_pressure;BME280_temperature;BME280_humidity;BME280_pressure;Samples;Min_cycle;Max_cycle;Signal;HPM_P1;HPM_P2
2023/07/14 00:00:17;;;;;;;4.20;2.30;;;;;;;;;;5062229;28;20452;-78
2023/07/14 00:02:45;;;;;;;5.80;2.80;;;;;;;;;;5064066;28;20449;-79
2023/07/14 00:05:17;;;;;;;3.50;2.27;;;;;;;;;;5063052;28;20544;-79
2023/07/14 00:07:45;;;;;;;4.40;2.83;;;;;;;;;;5060573;28;20544;-80
2023/07/14 00:10:21;;;;;;;5.43;2.50;;;;;;;;;;5060844;28;20523;-78
2023/07/14 00:12:51;;;;;;;3.20;2.17;;;;;;;;;;5062353;28;20449;-80
2023/07/14 00:15:19;;;;;;;4.80;2.43;;;;;;;;;;5061428;28;20460;-78
2023/07/14 00:17:47;;;;;;;6.13;2.97;;;;;;;;;;5061341;28;20461;-79
2023/07/14 00:20:22;;;;;;;3.93;2.50;;;;;;;;;;5062636;28;20467;-78
2023/07/14 00:22:50;;;;;;;2.83;2.00;;;;;;;;;;5061803;28;20465;-79
2023/07/14 00:25:18;;;;;;;3.50;2.30;;;;;;;;;;5061088;28;20460;-80
2023/07/14 00:27:45;;;;;;;3.17;2.13;;;;;;;;;;5062129;28;20460;-80
2023/07/14 00:30:23;;;;;;;3.87;2.20;;;;;;;;;;5061339;28;20437;-79
2023/07/14 00:32:52;;;;;;;3.17;1.90;;;;;;;;;;5059859;28;20441;-79
2023/07/14 00:35:29;;;;;;;3.97;2.30;;;;;;;;;;5059396;28;20477;-79
2023/07/14 00:37:59;;;;;;;4.50;2.03;;;;;;;;;;5060137;28;20449;-79
2023/07/14 00:40:36;;;;;;;2.97;2.20;;;;;;;;;;5064285;28;20437;-78
2023/07/14 00:43:05;;;;;;;4.67;2.23;;;;;;;;;;5063284;28;20461;-78
2023/07/14 00:45:35;;;;;;;2.90;1.83;;;;;;;;;;5060416;28;20485;-79
2023/07/14 00:48:04;;;;;;;3.70;2.33;;;;;;;;;;5061248;28;20453;-79
2023/07/14 00:50:34;;;;;;;4.37;2.53;;;;;;;;;;5062902;28;20458;-80
2023/07/14 00:53:04;;;;;;;5.83;2.37;;;;;;;;;;5062211;28;20453;-78
2023/07/14 00:55:40;;;;;;;3.17;2.13;;;;;;;;;;5069214;28;20479;-79
2023/07/14 00:58:14;;;;;;;4.23;2.20;;;;;;;;;;5069125;28;20513;-78
2023/07/14 01:00:59;;;;;;;3.73;1.77;;;;;;;;;;5066204;28;20452;-79
2023/07/14 01:03:28;;;;;;;4.03;2.40;;;;;;;;;;5062616;28;20456;-80
2023/07/14 01:05:55;;;;;;;4.93;2.20;;;;;;;;;;5063076;28;20453;-79
2023/07/14 01:08:23;;;;;;;4.00;2.33;;;;;;;;;;5064138;28;20505;-80
2023/07/14 01:10:51;;;;;;;3.70;2.27;;;;;;;;;;5066993;28;20457;-78
2023/07/14 01:13:20;;;;;;;2.93;1.57;;;;;;;;;;5063363;28;20753;-79
2023/07/14 01:15:48;;;;;;;5.07;2.03;;;;;;;;;;5061446;28;20527;-79
2023/07/14 01:18:15;;;;;;;6.00;2.20;;;;;;;;;;5063254;28;20461;-78
2023/07/14 01:20:44;;;;;;;4.77;2.40;;;;;;;;;;5064695;28;20484;-77
2023/07/14 01:23:30;;;;;;;3.10;1.97;;;;;;;;;;5064085;28;20918;-79
2023/07/14 01:26:04;;;;;;;3.20;1.80;;;;;;;;;;5064662;28;20532;-78
2023/07/14 01:28:33;;;;;;;4.40;2.50;;;;;;;;;;5063503;28;20467;-78
2023/07/14 01:31:00;;;;;;;3.63;2.20;;;;;;;;;;5065704;28;20521;-82
2023/07/14 01:33:28;;;;;;;3.10;1.93;;;;;;;;;;5066115;28;20544;-78
2023/07/14 01:35:57;;;;;;;3.57;2.60;;;;;;;;;;5064793;28;20456;-79
2023/07/14 01:38:24;;;;;;;3.90;2.00;;;;;;;;;;5066160;28;20740;-82
2023/07/14 01:40:52;;;;;;;3.47;2.47;;;;;;;;;;5064881;28;20465;-77
2023/07/14 01:43:20;;;;;;;3.80;2.03;;;;;;;;;;5063023;28;20701;-79
2023/07/14 01:45:51;;;;;;;3.33;1.90;;;;;;;;;;5064346;28;20465;-81
2023/07/14 01:48:22;;;;;;;3.50;2.07;;;;;;;;;;5064924;28;20489;-79
2023/07/14 01:50:52;;;;;;;6.63;2.10;;;;;;;;;;5048915;28;20461;-81
2023/07/14 01:53:22;;;;;;;3.80;1.70;;;;;;;;;;5065939;28;20449;-81
2023/07/14 01:55:52;;;;;;;3.23;1.70;;;;;;;;;;5065283;28;20546;-80
2023/07/14 01:58:22;;;;;;;3.10;2.17;;;;;;;;;;5066513;28;20454;-81
2023/07/14 02:00:52;;;;;;;3.13;2.03;;;;;;;;;;5065433;28;20481;-80
2023/07/14 02:03:23;;;;;;;3.63;2.20;;;;;;;;;;5063611;28;20464;-79
2023/07/14 02:05:51;;;;;;;3.70;1.97;;;;;;;;;;5064227;28;20450;-79
2023/07/14 02:08:21;;;;;;;3.80;2.23;;;;;;;;;;5062713;28;20471;-79
2023/07/14 02:10:48;;;;;;;3.70;2.10;;;;;;;;;;5064532;28;20459;-81
2023/07/14 02:13:16;;;;;;;4.37;2.47;;;;;;;;;;5065555;28;20464;-78
2023/07/14 02:15:44;;;;;;;4.77;2.57;;;;;;;;;;5066240;28;20493;-77
2023/07/14 02:18:20;;;;;;;4.37;2.13;;;;;;;;;;5072055;28;20527;-79
2023/07/14 02:20:48;;;;;;;4.20;2.40;;;;;;;;;;5069064;28;20815;-78
2023/07/14 02:23:20;;;;;;;4.90;2.80;;;;;;;;;;5063955;28;20515;-77
2023/07/14 02:25:48;;;;;;;2.87;2.40;;;;;;;;;;5064542;28;20530;-78
2023/07/14 02:28:16;;;;;;;3.70;2.40;;;;;;;;;;5063443;28;20592;-80
2023/07/14 02:30:46;;;;;;;8.23;2.73;;;;;;;;;;5063013;28;20548;-79
2023/07/14 02:33:17;;;;;;;4.20;2.30;;;;;;;;;;5062406;28;20446;-79
2023/07/14 02:35:48;;;;;;;3.70;2.37;;;;;;;;;;5064576;28;20481;-78
2023/07/14 02:38:16;;;;;;;7.23;2.87;;;;;;;;;;5067496;28;20464;-78
2023/07/14 02:40:46;;;;;;;4.37;3.10;;;;;;;;;;5065051;28;20462;-79
2023/07/14 02:43:15;;;;;;;3.77;2.40;;;;;;;;;;5067124;28;20487;-78
2023/07/14 02:45:44;;;;;;;4.20;3.10;;;;;;;;;;5069690;28;20450;-80
2023/07/14 02:48:13;;;;;;;7.27;3.53;;;;;;;;;;5067987;28;20462;-80
2023/07/14 02:50:42;;;;;;;6.77;3.80;;;;;;;;;;5066686;28;20453;-79
2023/07/14 02:53:10;;;;;;;3.63;3.10;;;;;;;;;;5073254;28;20484;-78
2023/07/14 02:55:38;;;;;;;4.67;3.13;;;;;;;;;;5071490;28;20549;-80
2023/07/14 02:58:06;;;;;;;5.03;3.63;;;;;;;;;;5069143;28;20452;-79
2023/07/14 03:00:34;;;;;;;6.50;4.17;;;;;;;;;;5061575;28;20489;-80
2023/07/14 03:03:02;;;;;;;8.10;3.70;;;;;;;;;;5061936;28;20458;-79
2023/07/14 03:05:30;;;;;;;3.93;3.10;;;;;;;;;;5060432;28;20515;-80
2023/07/14 03:08:00;;;;;;;4.60;3.70;;;;;;;;;;5060373;28;20458;-77
2023/07/14 03:10:28;;;;;;;5.40;3.37;;;;;;;;;;5060218;28;20462;-78
2023/07/14 03:12:55;;;;;;;6.53;3.80;;;;;;;;;;5059380;28;20469;-79
2023/07/14 03:15:24;;;;;;;6.23;3.40;;;;;;;;;;5060042;28;20903;-78
2023/07/14 03:17:51;;;;;;;4.77;3.60;;;;;;;;;;5059308;28;20450;-79
2023/07/14 03:20:19;;;;;;;5.13;3.20;;;;;;;;;;5058661;28;20469;-79
2023/07/14 03:22:46;;;;;;;5.47;3.40;;;;;;;;;;5057711;28;20462;-78
2023/07/14 03:25:15;;;;;;;5.40;3.60;;;;;;;;;;5059293;28;20460;-79
2023/07/14 03:27:43;;;;;;;6.13;4.47;;;;;;;;;;5059363;28;20468;-79
2023/07/14 03:30:11;;;;;;;9.07;4.87;;;;;;;;;;5063188;28;20461;-77
2023/07/14 03:32:38;;;;;;;9.93;4.30;;;;;;;;;;5059948;28;20756;-80
2023/07/14 03:35:06;;;;;;;4.70;3.93;;;;;;;;;;5057826;28;20922;-79
2023/07/14 03:37:33;;;;;;;6.30;4.00;;;;;;;;;;5058086;28;20472;-78
2023/07/14 03:40:06;;;;;;;8.63;4.53;;;;;;;;;;5059691;28;20457;-78
2023/07/14 03:42:34;;;;;;;4.70;3.63;;;;;;;;;;5059508;28;20942;-77
2023/07/14 03:45:07;;;;;;;6.57;4.00;;;;;;;;;;5061024;28;20877;-80
2023/07/14 03:47:39;;;;;;;4.50;3.77;;;;;;;;;;5062543;28;20469;-78
2023/07/14 03:50:11;;;;;;;6.07;4.33;;;;;;;;;;5062314;28;20450;-80
2023/07/14 03:52:38;;;;;;;6.63;4.87;;;;;;;;;;5064897;28;20441;-79
2023/07/14 03:55:06;;;;;;;9.20;5.10;;;;;;;;;;5067892;28;20488;-78
2023/07/14 03:57:36;;;;;;;7.40;5.13;;;;;;;;;;5067888;28;20681;-79
2023/07/14 04:00:17;;;;;;;7.80;4.27;;;;;;;;;;5066743;28;20457;-79
2023/07/14 04:02:44;;;;;;;7.20;4.87;;;;;;;;;;5066745;28;20503;-79
2023/07/14 04:05:12;;;;;;;8.33;5.30;;;;;;;;;;5066939;28;20442;-79
2023/07/14 04:07:40;;;;;;;6.83;4.70;;;;;;;;;;5056771;28;20487;-77
2023/07/14 04:10:17;;;;;;;6.90;4.53;;;;;;;;;;5058500;28;20744;-81
2023/07/14 04:12:48;;;;;;;8.87;5.77;;;;;;;;;;5059806;28;20460;-80
2023/07/14 04:15:15;;;;;;;8.10;6.00;;;;;;;;;;5063192;28;20492;-77
2023/07/14 04:17:42;;;;;;;6.70;5.40;;;;;;;;;;5058738;28;20457;-79
2023/07/14 04:20:10;;;;;;;8.27;5.80;;;;;;;;;;5058970;28;20781;-78
2023/07/14 04:22:38;;;;;;;7.13;6.30;;;;;;;;;;5060440;28;20454;-79
2023/07/14 04:25:05;;;;;;;7.70;6.20;;;;;;;;;;5060339;28;20544;-79
2023/07/14 04:27:33;;;;;;;9.03;5.17;;;;;;;;;;5059474;28;20450;-80
2023/07/14 04:30:08;;;;;;;8.67;5.70;;;;;;;;;;5060296;28;20535;-80
2023/07/14 04:32:36;;;;;;;8.50;5.70;;;;;;;;;;5060148;28;20921;-78
2023/07/14 04:35:04;;;;;;;8.07;5.60;;;;;;;;;;5062415;28;20507;-79
2023/07/14 04:37:31;;;;;;;7.50;6.37;;;;;;;;;;5063151;28;20476;-80
2023/07/14 04:39:59;;;;;;;8.07;6.67;;;;;;;;;;5063588;28;20492;-79
2023/07/14 04:42:26;;;;;;;13.77;5.77;;;;;;;;;;5064847;28;20453;-78
2023/07/14 04:44:54;;;;;;;7.90;5.37;;;;;;;;;;5063248;28;20447;-78
2023/07/14 04:47:23;;;;;;;6.80;5.90;;;;;;;;;;5065356;28;20492;-79
2023/07/14 04:49:50;;;;;;;8.07;6.00;;;;;;;;;;5064171;28;20563;-79
2023/07/14 04:52:18;;;;;;;6.80;6.10;;;;;;;;;;5062882;28;20575;-78
2023/07/14 04:54:45;;;;;;;9.33;6.47;;;;;;;;;;5060971;28;20497;-79
2023/07/14 04:57:13;;;;;;;10.87;6.63;;;;;;;;;;5059576;28;20863;-77
2023/07/14 04:59:41;;;;;;;8.50;6.73;;;;;;;;;;5062142;28;20480;-79
2023/07/14 05:02:12;;;;;;;8.60;7.07;;;;;;;;;;5062683;28;20449;-78
2023/07/14 05:04:43;;;;;;;10.77;6.50;;;;;;;;;;5065116;28;20461;-80
2023/07/14 05:07:10;;;;;;;12.53;6.40;;;;;;;;;;5065269;28;20487;-79
2023/07/14 05:09:37;;;;;;;7.20;5.87;;;;;;;;;;5062677;28;20493;-79
2023/07/14 05:12:06;;;;;;;6.90;5.97;;;;;;;;;;5062838;28;20462;-78
2023/07/14 05:14:34;;;;;;;8.43;6.40;;;;;;;;;;5061506;28;20445;-78
2023/07/14 05:17:01;;;;;;;7.27;4.90;;;;;;;;;;5060998;28;20449;-78
2023/07/14 05:19:29;;;;;;;9.77;6.30;;;;;;;;;;5062109;28;20901;-79
2023/07/14 05:22:00;;;;;;;7.40;6.43;;;;;;;;;;5061980;28;20599;-79
2023/07/14 05:24:27;;;;;;;9.40;6.43;;;;;;;;;;5060283;28;20458;-78
2023/07/14 05:26:56;;;;;;;9.60;5.20;;;;;;;;;;5060700;28;20514;-79
2023/07/14 05:29:23;;;;;;;10.07;6.33;;;;;;;;;;5061080;28;20434;-80
2023/07/14 05:31:51;;;;;;;10.77;5.63;;;;;;;;;;5058868;28;20556;-78
2023/07/14 05:34:18;;;;;;;8.37;5.90;;;;;;;;;;5057084;28;20465;-78
2023/07/14 05:36:46;;;;;;;10.17;6.20;;;;;;;;;;5057194;28;20792;-78
2023/07/14 05:39:15;;;;;;;8.27;5.93;;;;;;;;;;5057724;28;20901;-78
2023/07/14 05:41:43;;;;;;;5.60;5.03;;;;;;;;;;5060573;28;20509;-77
2023/07/14 05:44:10;;;;;;;8.80;4.40;;;;;;;;;;5059747;28;20831;-78
2023/07/14 05:46:38;;;;;;;7.40;4.70;;;;;;;;;;5065091;28;20455;-79
2023/07/14 05:49:05;;;;;;;5.87;4.30;;;;;;;;;;5062681;28;20514;-77
2023/07/14 05:51:33;;;;;;;7.50;4.90;;;;;;;;;;5063117;28;20465;-80
2023/07/14 05:54:00;;;;;;;7.17;4.50;;;;;;;;;;5057479;28;20445;-78
2023/07/14 05:56:29;;;;;;;5.50;4.40;;;;;;;;;;5016525;28;20483;-79
2023/07/14 05:58:56;;;;;;;7.00;4.70;;;;;;;;;;5017592;28;20736;-78
2023/07/14 06:01:24;;;;;;;5.83;4.93;;;;;;;;;;5017540;28;20520;-78
2023/07/14 06:03:51;;;;;;;8.00;5.17;;;;;;;;;;5015103;28;20725;-79
2023/07/14 06:06:19;;;;;;;6.83;5.10;;;;;;;;;;5012350;28;20846;-78
2023/07/14 06:17:58;;;;;;;10.97;5.07;;;;;;;;;;5017638;28;20542;-74
2023/07/14 06:20:40;;;;;;;8.30;5.47;;;;;;;;;;4975448;28;20445;-74
2023/07/14 06:23:11;;;;;;;6.73;5.07;;;;;;;;;;4972606;28;20883;-73
2023/07/14 06:26:01;;;;;;;8.50;5.70;;;;;;;;;;5047355;28;20488;-74
2023/07/14 06:28:30;;;;;;;8.30;6.10;;;;;;;;;;5053714;28;20470;-74
2023/07/14 06:31:15;;;;;;;5.77;5.20;;;;;;;;;;5057939;28;20461;-74
2023/07/14 06:33:58;;;;;;;11.33;8.00;;;;;;;;;;5056441;28;20460;-74
2023/07/14 06:36:43;;;;;;;9.23;5.97;;;;;;;;;;5052717;28;20586;-74
2023/07/14 06:39:34;;;;;;;8.23;5.60;;;;;;;;;;5027190;28;20533;-75
2023/07/14 06:45:06;;;;;;;8.90;5.37;;;;;;;;;;5051632;28;20567;-73
2023/07/14 06:47:57;;;;;;;7.87;6.23;;;;;;;;;;5058881;28;20463;-74
2023/07/14 06:51:02;;;;;;;6.53;5.63;;;;;;;;;;5054615;28;20514;-75
2023/07/14 06:53:49;;;;;;;9.90;4.50;;;;;;;;;;5073999;28;21245;-74
2023/07/14 06:59:11;;;;;;;5.20;4.40;;;;;;;;;;5066649;28;20459;-76
2023/07/14 07:01:39;;;;;;;7.00;4.20;;;;;;;;;;5094869;28;20424;-74
2023/07/14 07:04:16;;;;;;;11.77;5.07;;;;;;;;;;5081927;28;20468;-75
2023/07/14 07:06:46;;;;;;;9.30;5.03;;;;;;;;;;5072198;28;20539;-76
2023/07/14 07:18:49;;;;;;;8.53;3.73;;;;;;;;;;5040424;28;20602;-76
2023/07/14 07:21:24;;;;;;;6.80;4.60;;;;;;;;;;5060544;28;20468;-77
2023/07/14 07:24:33;;;;;;;5.60;4.23;;;;;;;;;;5053481;28;20499;-76
2023/07/14 07:31:08;;;;;;;;;;;;;;;;;;;;;
2023/07/14 07:33:40;;;;;;;7.60;3.70;;;;;;;;;;5042847;28;20454;-76
2023/07/14 07:42:25;;;;;;;7.77;5.03;;;;;;;;;;5039790;28;20544;-75
2023/07/14 07:44:56;;;;;;;8.10;4.83;;;;;;;;;;5054246;28;20754;-75
2023/07/14 07:50:30;;;;;;;7.00;4.07;;;;;;;;;;5056244;28;20468;-74
2023/07/14 07:53:17;;;;;;;4.63;3.63;;;;;;;;;;5060557;28;21011;-75
2023/07/14 07:55:57;;;;;;;7.10;3.10;;;;;;;;;;5076957;28;20548;-75
2023/07/14 07:58:32;;;;;;;5.00;3.90;;;;;;;;;;5076700;28;20456;-75
2023/07/14 08:04:19;;;;;;;4.90;3.10;;;;;;;;;;5075853;28;20453;-75
2023/07/14 08:06:51;;;;;;;3.90;3.00;;;;;;;;;;5076555;28;20448;-75
2023/07/14 08:09:20;;;;;;;6.00;3.50;;;;;;;;;;5079776;28;20810;-75
2023/07/14 08:11:49;;;;;;;13.23;2.87;;;;;;;;;;5081172;28;20456;-74
2023/07/14 08:14:28;;;;;;;9.93;2.70;;;;;;;;;;5084298;28;20456;-74
2023/07/14 08:20:26;;;;;;;;;;;;;;;;;;;;;
2023/07/14 08:23:04;;;;;;;8.00;5.17;;;;;;;;;;5080833;28;20448;-76
2023/07/14 08:25:35;;;;;;;6.67;3.70;;;;;;;;;;5083509;28;20770;-74
2023/07/14 08:31:09;;;;;;;;;;;;;;;;;;;;;
2023/07/14 08:33:46;;;;;;;7.17;3.77;;;;;;;;;;5079607;28;20576;-75
2023/07/14 08:36:27;;;;;;;6.67;2.57;;;;;;;;;;5074896;28;20479;-75
2023/07/14 08:39:13;;;;;;;5.90;2.80;;;;;;;;;;5074416;28;20892;-74
2023/07/14 08:42:01;;;;;;;5.70;2.60;;;;;;;;;;5059184;28;20448;-75
2023/07/14 08:44:44;;;;;;;5.90;3.50;;;;;;;;;;5057252;28;20465;-75
2023/07/14 08:47:20;;;;;;;5.70;2.60;;;;;;;;;;5056386;28;20468;-76
2023/07/14 08:49:54;;;;;;;8.00;2.87;;;;;;;;;;5055223;28;20512;-74
2023/07/14 08:52:25;;;;;;;10.30;3.23;;;;;;;;;;5075111;28;20456;-75
2023/07/14 08:55:08;;;;;;;5.50;2.80;;;;;;;;;;5059269;28;20743;-74
2023/07/14 08:57:44;;;;;;;5.90;2.40;;;;;;;;;;5053920;28;20485;-74
2023/07/14 09:00:17;;;;;;;6.33;3.20;;;;;;;;;;5074911;28;20459;-76
2023/07/14 09:03:07;;;;;;;6.70;2.97;;;;;;;;;;5075734;28;20433;-76
2023/07/14 09:05:45;;;;;;;4.07;2.10;;;;;;;;;;5076916;28;20828;-76
2023/07/14 09:08:14;;;;;;;6.50;2.47;;;;;;;;;;5076687;28;20456;-75
2023/07/14 09:11:03;;;;;;;7.73;3.37;;;;;;;;;;5078076;28;20508;-77
2023/07/14 09:14:11;;;;;;;6.03;2.33;;;;;;;;;;5067110;28;20496;-76
2023/07/14 09:16:52;;;;;;;7.53;2.47;;;;;;;;;;5057775;28;20512;-74
2023/07/14 09:19:28;;;;;;;10.23;3.23;;;;;;;;;;5056969;28;20835;-75
2023/07/14 09:21:59;;;;;;;9.90;6.97;;;;;;;;;;5053878;28;20480;-75
2023/07/14 09:30:22;;;;;;;6.10;3.00;;;;;;;;;;5038965;28;20472;-75
2023/07/14 09:33:09;;;;;;;6.37;3.13;;;;;;;;;;5055164;28;20445;-75
2023/07/14 09:41:16;;;;;;;7.07;3.03;;;;;;;;;;5085274;28;20506;-74
2023/07/14 09:47:08;;;;;;;6.63;2.47;;;;;;;;;;5062700;28;20479;-76
2023/07/14 09:56:08;;;;;;;5.17;2.70;;;;;;;;;;5049989;28;20475;-75
2023/07/14 09:58:37;;;;;;;6.70;2.77;;;;;;;;;;5048057;28;20917;-75
2023/07/14 10:01:17;;;;;;;4.63;2.87;;;;;;;;;;5056205;28;20500;-75
2023/07/14 10:03:49;;;;;;;5.00;3.03;;;;;;;;;;5053906;28;20463;-74
2023/07/14 10:06:24;;;;;;;6.47;2.80;;;;;;;;;;5053854;28;20465;-75
2023/07/14 10:14:57;;;;;;;7.43;3.10;;;;;;;;;;5056616;28;20194;-76
2023/07/14 10:17:31;;;;;;;5.87;2.17;;;;;;;;;;5064172;28;20495;-74
2023/07/14 10:29:01;;;;;;;5.00;2.20;;;;;;;;;;5075945;28;20564;-76
2023/07/14 10:31:37;;;;;;;6.13;2.63;;;;;;;;;;5077246;28;21071;-75
2023/07/14 10:34:12;;;;;;;4.70;2.10;;;;;;;;;;5070980;28;20557;-73
2023/07/14 10:36:41;;;;;;;5.37;2.10;;;;;;;;;;5068149;28;20495;-75
2023/07/14 10:39:19;;;;;;;5.70;2.97;;;;;;;;;;5073737;28;20475;-75
2023/07/14 10:41:57;;;;;;;5.40;2.10;;;;;;;;;;5073189;28;20464;-74
2023/07/14 10:44:38;;;;;;;3.90;1.80;;;;;;;;;;5068965;28;21095;-74
2023/07/14 10:47:46;;;;;;;;;;;;;;;;;;;;;
2023/07/14 10:50:49;;;;;;;5.80;1.90;;;;;;;;;;5062089;28;20448;-75
2023/07/14 10:56:33;;;;;;;5.30;2.73;;;;;;;;;;5020815;28;20590;-74
2023/07/14 10:59:28;;;;;;;6.13;2.67;;;;;;;;;;5063463;28;20453;-75
2023/07/14 11:05:29;;;;;;;4.17;2.17;;;;;;;;;;5032719;28;20967;-74
2023/07/14 11:08:10;;;;;;;5.57;2.53;;;;;;;;;;5032954;28;20446;-74
2023/07/14 11:14:01;;;;;;;7.40;2.60;;;;;;;;;;5029848;28;20480;-74
2023/07/14 11:16:36;;;;;;;5.57;2.40;;;;;;;;;;5027894;28;20545;-75
2023/07/14 11:22:20;;;;;;;5.13;1.90;;;;;;;;;;5024913;28;20687;-74
2023/07/14 11:25:11;;;;;;;6.00;2.53;;;;;;;;;;5040507;28;20539;-74
2023/07/14 11:28:25;;;;;;;6.50;2.90;;;;;;;;;;5070451;28;20786;-75
2023/07/14 11:31:29;;;;;;;4.43;2.70;;;;;;;;;;5010912;28;20545;-74
2023/07/14 11:34:32;;;;;;;5.37;2.67;;;;;;;;;;5052698;28;20446;-75
2023/07/14 11:37:12;;;;;;;6.03;2.67;;;;;;;;;;5054388;28;20543;-75
2023/07/14 11:40:24;;;;;;;10.20;2.90;;;;;;;;;;5068276;28;20487;-74
2023/07/14 11:43:24;;;;;;;6.30;3.10;;;;;;;;;;5072982;28;20550;-75
2023/07/14 11:46:09;;;;;;;16.60;4.93;;;;;;;;;;5051459;28;20551;-75
2023/07/14 11:49:12;;;;;;;5.13;3.20;;;;;;;;;;5026459;28;20810;-76
2023/07/14 11:55:04;;;;;;;5.27;2.77;;;;;;;;;;5025308;28;20521;-76
2023/07/14 11:57:53;;;;;;;5.17;2.60;;;;;;;;;;5028253;28;21145;-75
2023/07/14 12:00:27;;;;;;;4.77;2.10;;;;;;;;;;5049930;28;20446;-74
2023/07/14 12:06:46;;;;;;;6.50;3.90;;;;;;;;;;5050802;28;20630;-75
2023/07/14 12:09:23;;;;;;;6.47;2.87;;;;;;;;;;5021062;28;20472;-76
2023/07/14 12:12:19;;;;;;;6.17;2.70;;;;;;;;;;5048149;28;20469;-76
2023/07/14 12:14:50;;;;;;;4.03;2.40;;;;;;;;;;5030690;28;20462;-76
2023/07/14 12:17:56;;;;;;;4.63;2.93;;;;;;;;;;5033319;28;20490;-76
2023/07/14 12:20:58;;;;;;;5.10;2.80;;;;;;;;;;5053353;28;20464;-75
2023/07/14 12:24:05;;;;;;;7.30;3.73;;;;;;;;;;5060296;28;20929;-75
2023/07/14 12:30:19;;;;;;;5.63;2.80;;;;;;;;;;5066239;28;20460;-76
2023/07/14 12:36:29;;;;;;;4.60;2.50;;;;;;;;;;5060912;28;20465;-76
2023/07/14 12:55:04;;;;;;;5.43;2.67;;;;;;;;;;5044531;28;20489;-75
2023/07/14 13:03:37;;;;;;;6.83;2.70;;;;;;;;;;5047920;28;20599;-75
2023/07/14 13:28:43;;;;;;;4.00;2.47;;;;;;;;;;6201272;23;20458;-75
2023/07/14 13:34:13;;;;;;;6.07;2.70;;;;;;;;;;6222742;23;20417;-74
2023/07/14 13:37:19;;;;;;;;;;;;;;;;;;;;;
